HOURLY OBS INDEX

055

Northwest Slopes - south

GUNNEDAH AIRPORT AWS

Site: 055202
Alt: 262.6m
3km N of GUNNEDAH


  Time     Wind        Temp  DP   Baro     Rain since   Rain past  Vis(m), Cloud(base in m), Weather
  local        km/h                         9am  last   hr   10m    
Mon 21:00  SSE 24/ 35  24.9 15.5  1014.3    0.0   0.0   0.0   0.0   ----- 
Mon 21:00  SSE 24/ 35  24.9 15.5  1014.3    0.0   0.0  ----   0.0   ----- 
Mon 21:30   SE 20/ 28  26.8 15.2  1014.0    0.0   0.0   0.0   0.0   ----- 
Mon 22:00  ESE 17/ 24  27.0 14.7  1014.1    0.0   0.0   0.0   0.0   ----- 
Mon 22:30   SE 20/ 26  26.4 13.2  1014.9    0.0   0.0   0.0   0.0   ----- 
Mon 23:00   SE 20/ 28  26.6 12.6  1015.0    0.0   0.0   0.0   0.0   ----- 
Mon 23:30   SE 19/ 28  25.7 13.5  1014.9    0.0   0.0   0.0   0.0   ----- 
Tue 00:00   SE 17/ 22  25.8 12.6  1015.0    0.0   0.0   0.0   0.0   ----- 
Tue 00:30   SE 19/ 22  25.7 11.5  1015.1    0.0   0.0   0.0   0.0   ----- 
Tue 01:00   SE 19/ 24  25.8 11.2  1015.1    0.0   0.0   0.0   0.0   ----- 
Tue 01:30   SE 17/ 22  25.4 10.4  1015.0    0.0   0.0   0.0   0.0   ----- 
Tue 02:00   SE 20/ 24  25.5  9.7  1014.7    0.0   0.0   0.0   0.0   ----- 
Tue 02:00   SE 20/ 24  25.5  9.7  1014.7    0.0   0.0  ----   0.0   ----- 

TAMWORTH AIRPORT AWS

Site: 055325
Alt: 394.9m
9km WNW of TAMWORTH


  Time     Wind        Temp  DP   Baro     Rain since   Rain past  Vis(m), Cloud(base in m), Weather
  local        km/h                         9am  last   hr   10m    
Mon 21:00  ESE 32/ 41  27.4 11.4  1015.5    0.0   0.0   0.0   0.0   10000|BR3600 
Mon 21:00  ESE 32/ 41  27.4 11.4  1015.5    0.0   0.0  ----   0.0   10000|BR3600 
Mon 21:30    E 24/ 32  26.8 11.3  1016.0    0.0   0.0   0.0   0.0   10000 
Mon 22:00  ESE 26/ 37  26.3 11.2  1016.1    0.0   0.0   0.0   0.0   10000 
Mon 22:30  ESE 24/ 32  25.7 11.1  1016.4    0.0   0.0   0.0   0.0   10000 
Mon 23:00  ESE 24/ 32  25.6  9.8  1016.7    0.0   0.0   0.0   0.0   10000 
Mon 23:30    E 26/ 39  25.3  9.6  1016.4    0.0   0.0   0.0   0.0   10000 
Tue 00:00    E 20/ 28  25.0  9.3  1016.6    0.0   0.0   0.0   0.0   10000|BR2700 BR3600 
Tue 00:30    E 17/ 20  24.9  8.8  1016.4    0.0   0.0   0.0   0.0   10000|BR2700 
Tue 01:00    E 11/ 13  24.2  9.4  1016.5    0.0   0.0   0.0   0.0   10000|SC2370 SC2640 SC3600 
Tue 01:30    E 13/ 17  23.5  9.1  1016.2    0.0   0.0   0.0   0.0   10000|SC2640 SC3300 
Tue 02:00    E 13/ 15  24.1  8.9  1016.0    0.0   0.0   0.0   0.0   10000|BR2460 BR3450 
Tue 02:00    E 13/ 15  24.1  8.9  1016.0    0.0   0.0  ----   0.0   10000|BR2460 BR3450